createdAt,value
2018-12-20T00:00:29.567Z,20.57
2018-12-20T00:02:59.209Z,19.02
2018-12-20T00:05:28.382Z,21.62
2018-12-20T00:07:57.470Z,20.50
2018-12-20T00:10:26.811Z,23.85
2018-12-20T00:12:56.104Z,22.73
2018-12-20T00:15:25.463Z,18.65
2018-12-20T00:17:54.726Z,22.85
2018-12-20T00:20:23.661Z,24.15
2018-12-20T00:22:53.613Z,20.17
2018-12-20T00:25:22.746Z,21.50
2018-12-20T00:27:51.373Z,21.62
2018-12-20T00:30:20.700Z,21.42
2018-12-20T00:32:50.374Z,22.62
2018-12-20T00:35:20.118Z,22.17
2018-12-20T00:37:48.996Z,21.90
2018-12-20T00:40:18.276Z,21.15
2018-12-20T00:42:50.335Z,19.00
2018-12-20T00:45:19.301Z,21.95
2018-12-20T00:47:48.524Z,20.57
2018-12-20T00:50:18.377Z,22.48
2018-12-20T00:52:47.450Z,19.00
2018-12-20T00:55:17.277Z,21.62
2018-12-20T00:57:46.677Z,22.35
2018-12-20T01:00:18.496Z,18.92
2018-12-20T01:02:55.062Z,20.15
2018-12-20T01:05:18.746Z,22.90
2018-12-20T01:07:47.870Z,23.22
2018-12-20T01:10:17.360Z,21.02
2018-12-20T01:12:46.365Z,19.23
2018-12-20T01:15:15.712Z,19.80
2018-12-20T01:17:44.291Z,20.00
2018-12-20T01:20:13.632Z,18.87
2018-12-20T01:22:42.645Z,20.57
2018-12-20T01:25:11.637Z,16.65
2018-12-20T01:27:41.243Z,19.45
2018-12-20T01:30:10.894Z,18.65
2018-12-20T01:32:39.476Z,19.17
2018-12-20T01:35:08.835Z,19.67
2018-12-20T01:37:37.873Z,17.73
2018-12-20T01:40:07.036Z,17.25
2018-12-20T01:42:36.744Z,18.52
2018-12-20T01:45:05.928Z,17.62
2018-12-20T01:47:34.888Z,17.23
2018-12-20T01:50:04.223Z,21.20
2018-12-20T01:52:33.128Z,19.02
2018-12-20T01:55:02.184Z,17.07
2018-12-20T01:57:30.949Z,21.52
2018-12-20T01:59:59.916Z,18.35
2018-12-20T02:02:29.005Z,18.65
2018-12-20T02:04:58.658Z,15.60
2018-12-20T02:07:28.208Z,19.07
2018-12-20T02:09:57.514Z,19.35
2018-12-20T02:12:26.399Z,17.95
2018-12-20T02:15:01.646Z,16.45
2018-12-20T02:17:26.292Z,17.40
2018-12-20T02:19:55.421Z,15.55
2018-12-20T02:22:24.257Z,18.90
2018-12-20T02:24:53.411Z,19.35
2018-12-20T02:27:22.489Z,19.87
2018-12-20T02:29:51.113Z,17.27
2018-12-20T02:32:20.529Z,18.15
2018-12-20T02:34:49.820Z,16.23
2018-12-20T02:37:18.812Z,17.10
2018-12-20T02:39:48.260Z,19.35
2018-12-20T02:42:17.594Z,15.60
2018-12-20T02:44:47.305Z,14.60
2018-12-20T02:47:17.213Z,15.85
2018-12-20T02:49:46.284Z,16.93
2018-12-20T02:52:15.720Z,16.97
2018-12-20T02:54:44.561Z,14.68
2018-12-20T02:57:14.880Z,14.58
2018-12-20T02:59:43.798Z,15.05
2018-12-20T03:02:13.259Z,18.77
2018-12-20T03:04:42.170Z,15.03
2018-12-20T03:07:11.106Z,14.95
2018-12-20T03:09:40.095Z,15.95
2018-12-20T03:12:08.855Z,14.80
2018-12-20T03:14:37.822Z,14.10
2018-12-20T03:17:07.313Z,13.98
2018-12-20T03:19:36.464Z,14.85
2018-12-20T03:22:05.468Z,15.13
2018-12-20T03:24:34.307Z,16.40
2018-12-20T03:27:03.457Z,15.00
2018-12-20T03:29:32.171Z,16.15
2018-12-20T03:32:00.908Z,13.78
2018-12-20T03:34:30.580Z,15.55
2018-12-20T03:36:59.413Z,14.20
2018-12-20T03:39:28.217Z,14.30
2018-12-20T03:41:57.413Z,15.20
2018-12-20T03:44:26.417Z,17.02
2018-12-20T03:46:55.101Z,14.98
2018-12-20T03:49:24.839Z,12.75
2018-12-20T03:51:54.173Z,12.65
2018-12-20T03:54:24.979Z,14.40
2018-12-20T03:56:54.342Z,13.95
2018-12-20T03:59:23.762Z,15.15
2018-12-20T04:01:53.508Z,13.60
2018-12-20T04:04:22.920Z,12.03
2018-12-20T04:06:51.804Z,14.13
2018-12-20T04:09:20.830Z,14.00
2018-12-20T04:11:50.295Z,13.22
2018-12-20T04:14:18.966Z,12.82
2018-12-20T04:16:48.031Z,14.25
2018-12-20T04:19:17.238Z,13.10
2018-12-20T04:21:46.770Z,14.95
2018-12-20T04:24:16.073Z,14.63
2018-12-20T04:26:44.790Z,13.15
2018-12-20T04:29:13.384Z,14.80
2018-12-20T04:31:42.557Z,12.95
2018-12-20T04:34:11.298Z,14.45
2018-12-20T04:36:40.095Z,12.75
2018-12-20T04:39:09.313Z,12.63
2018-12-20T04:41:38.526Z,13.45
2018-12-20T04:44:07.802Z,10.72
2018-12-20T04:46:36.734Z,12.33
2018-12-20T04:49:05.780Z,8.88
2018-12-20T04:51:35.391Z,9.08
2018-12-20T04:54:04.412Z,10.20
2018-12-20T04:56:33.782Z,10.10
2018-12-20T04:59:02.621Z,11.10
2018-12-20T05:01:31.444Z,9.55
2018-12-20T05:04:00.867Z,10.05
2018-12-20T05:06:30.212Z,9.40
2018-12-20T05:08:59.217Z,8.65
2018-12-20T05:11:29.851Z,9.53
2018-12-20T05:13:58.786Z,9.13
2018-12-20T05:16:27.761Z,9.48
2018-12-20T05:18:56.589Z,10.28
2018-12-20T05:21:26.094Z,8.75
2018-12-20T05:23:55.475Z,9.55
2018-12-20T05:26:24.415Z,8.90
2018-12-20T05:28:53.215Z,8.45
2018-12-20T05:31:22.150Z,10.85
2018-12-20T05:33:51.755Z,9.10
2018-12-20T05:36:20.770Z,8.83
2018-12-20T05:38:49.557Z,9.25
2018-12-20T05:41:18.340Z,13.03
2018-12-20T05:43:46.963Z,8.98
2018-12-20T05:46:15.766Z,8.85
2018-12-20T05:48:44.569Z,9.35
2018-12-20T05:51:13.210Z,7.72
2018-12-20T05:53:42.583Z,9.33
2018-12-20T05:56:11.707Z,9.73
2018-12-20T05:58:40.972Z,9.25
2018-12-20T06:01:10.517Z,10.80
2018-12-20T06:03:40.330Z,8.45
2018-12-20T06:06:09.589Z,8.50
2018-12-20T06:08:38.670Z,9.03
2018-12-20T06:11:08.041Z,8.85
2018-12-20T06:13:36.752Z,8.95
2018-12-20T06:16:12.572Z,7.90
2018-12-20T06:18:36.802Z,8.80
2018-12-20T06:21:05.715Z,7.20
2018-12-20T06:23:34.344Z,7.37
2018-12-20T06:26:02.957Z,7.55
2018-12-20T06:28:31.750Z,7.28
2018-12-20T06:31:01.057Z,8.28
2018-12-20T06:33:29.680Z,6.70
2018-12-20T06:35:58.738Z,7.03
2018-12-20T06:38:27.633Z,6.67
2018-12-20T06:40:56.852Z,7.65
2018-12-20T06:43:25.631Z,6.70
2018-12-20T06:45:55.326Z,6.45
2018-12-20T06:48:24.972Z,6.10
2018-12-20T06:50:54.066Z,6.12
2018-12-20T06:53:22.810Z,5.50
2018-12-20T06:55:51.515Z,6.53
2018-12-20T06:58:21.163Z,5.15
2018-12-20T07:00:50.131Z,6.05
2018-12-20T07:03:18.950Z,6.55
2018-12-20T07:05:47.674Z,6.33
2018-12-20T07:08:16.873Z,7.90
2018-12-20T07:10:45.690Z,6.58
2018-12-20T07:13:14.295Z,6.50
2018-12-20T07:15:43.849Z,6.45
2018-12-20T07:18:13.462Z,6.90
2018-12-20T07:20:42.235Z,7.00
2018-12-20T07:23:11.010Z,7.12
2018-12-20T07:25:40.107Z,7.80
2018-12-20T07:28:09.509Z,6.55
2018-12-20T07:30:39.096Z,7.53
2018-12-20T07:33:08.609Z,9.45
2018-12-20T07:35:37.215Z,6.72
2018-12-20T07:38:05.955Z,6.28
2018-12-20T07:40:35.332Z,5.87
2018-12-20T07:43:04.804Z,5.95
2018-12-20T07:45:33.706Z,6.67
2018-12-20T07:48:02.642Z,6.42
2018-12-20T07:50:31.554Z,6.55
2018-12-20T07:53:01.048Z,5.95
2018-12-20T07:55:30.104Z,5.90
2018-12-20T07:57:59.085Z,5.47
2018-12-20T08:00:29.966Z,5.97
2018-12-20T08:02:59.169Z,5.50
2018-12-20T08:05:28.444Z,6.25
2018-12-20T08:07:57.193Z,6.12
2018-12-20T08:10:25.890Z,5.97
2018-12-20T08:12:55.592Z,4.55
2018-12-20T08:15:24.618Z,4.97
2018-12-20T08:17:53.606Z,5.17
2018-12-20T08:20:22.328Z,6.42
2018-12-20T08:22:51.530Z,5.72
2018-12-20T08:25:20.121Z,6.08
2018-12-20T08:27:50.820Z,6.33
2018-12-20T08:30:21.363Z,5.60
2018-12-20T08:32:50.235Z,6.55
2018-12-20T08:35:19.176Z,6.30
2018-12-20T08:37:47.773Z,5.42
2018-12-20T08:40:17.044Z,6.35
2018-12-20T08:42:46.002Z,5.00
2018-12-20T08:45:15.311Z,6.85
2018-12-20T08:47:44.845Z,5.20
2018-12-20T08:50:14.149Z,7.17
2018-12-20T08:52:43.405Z,6.62
2018-12-20T08:55:12.109Z,5.90
2018-12-20T08:57:41.504Z,6.75
2018-12-20T09:00:10.445Z,5.28
2018-12-20T09:02:39.707Z,5.85
2018-12-20T09:05:08.459Z,6.83
2018-12-20T09:07:37.478Z,7.25
2018-12-20T09:10:06.434Z,5.97
2018-12-20T09:12:35.911Z,5.80
2018-12-20T09:15:05.379Z,6.75
2018-12-20T09:17:34.135Z,5.62
2018-12-20T09:20:03.491Z,5.40
2018-12-20T09:22:33.114Z,5.53
2018-12-20T09:25:02.662Z,5.12
2018-12-20T09:27:32.115Z,5.17
2018-12-20T09:30:00.725Z,5.80
2018-12-20T09:32:29.595Z,5.17
2018-12-20T09:34:58.150Z,4.40
2018-12-20T09:37:27.089Z,4.22
2018-12-20T09:39:55.962Z,4.40
2018-12-20T09:42:24.746Z,4.58
2018-12-20T09:44:53.907Z,4.08
2018-12-20T09:47:28.744Z,4.53
2018-12-20T09:49:57.901Z,3.62
2018-12-20T09:52:26.733Z,4.83
2018-12-20T09:54:56.017Z,4.37
2018-12-20T09:57:24.816Z,4.53
2018-12-20T09:59:54.116Z,4.15
2018-12-20T10:02:22.848Z,4.03
2018-12-20T10:04:51.512Z,3.92
2018-12-20T10:07:20.512Z,4.87
2018-12-20T10:09:49.942Z,4.03
2018-12-20T10:12:18.781Z,4.62
2018-12-20T10:14:47.672Z,4.05
2018-12-20T10:17:20.010Z,2.92
2018-12-20T10:19:48.170Z,3.37
2018-12-20T10:22:17.575Z,3.65
2018-12-20T10:24:46.983Z,3.35
2018-12-20T10:27:16.228Z,3.90
2018-12-20T10:29:44.970Z,2.92
2018-12-20T10:32:13.609Z,2.45
2018-12-20T10:34:42.924Z,2.85
2018-12-20T10:37:11.800Z,2.60
2018-12-20T10:39:40.691Z,3.15
2018-12-20T10:42:09.542Z,3.55
2018-12-20T10:44:39.095Z,2.98
2018-12-20T10:47:13.476Z,3.52
2018-12-20T10:49:42.993Z,2.98
2018-12-20T10:52:12.290Z,2.77
2018-12-20T10:54:40.926Z,2.90
2018-12-20T10:57:10.086Z,1.87
2018-12-20T10:59:39.151Z,2.40
2018-12-20T11:02:13.320Z,3.10
2018-12-20T11:05:48.699Z,2.55
2018-12-20T11:08:24.332Z,2.45
2018-12-20T11:10:58.470Z,4.12
2018-12-20T11:13:28.110Z,3.70
2018-12-20T11:15:57.010Z,2.50
2018-12-20T11:18:25.992Z,4.35
2018-12-20T11:20:54.560Z,2.33
2018-12-20T11:23:23.849Z,2.35
2018-12-20T11:25:52.871Z,3.27
2018-12-20T11:28:21.475Z,2.62
2018-12-20T11:30:50.344Z,3.02
2018-12-20T11:33:19.533Z,2.33
2018-12-20T11:35:49.024Z,3.30
2018-12-20T11:38:18.497Z,2.98
2018-12-20T11:40:47.045Z,2.58
2018-12-20T11:43:15.906Z,3.20
2018-12-20T11:45:44.981Z,2.87
2018-12-20T11:48:14.695Z,2.72
2018-12-20T11:50:44.459Z,4.37
2018-12-20T11:53:13.441Z,2.45
2018-12-20T11:55:42.431Z,2.40
2018-12-20T11:58:12.119Z,2.87
2018-12-20T12:00:41.455Z,2.87
2018-12-20T12:03:10.384Z,3.45
2018-12-20T12:05:39.586Z,4.08
2018-12-20T12:08:08.248Z,5.12
2018-12-20T12:10:37.724Z,4.15
2018-12-20T12:13:06.546Z,2.35
2018-12-20T12:15:37.008Z,2.87
2018-12-20T12:18:06.496Z,3.33
2018-12-20T12:20:35.971Z,3.42
2018-12-20T12:23:05.003Z,4.17
2018-12-20T12:25:34.068Z,5.30
2018-12-20T12:28:02.805Z,3.20
2018-12-20T12:30:32.543Z,3.95
2018-12-20T12:33:01.245Z,2.30
2018-12-20T12:35:29.991Z,2.95
2018-12-20T12:37:58.846Z,3.08
2018-12-20T12:40:28.311Z,6.15
2018-12-20T12:42:57.305Z,3.47
2018-12-20T12:45:26.447Z,3.75
2018-12-20T12:48:03.630Z,2.83
2018-12-20T12:50:31.103Z,3.20
2018-12-20T12:53:00.881Z,3.02
2018-12-20T12:55:29.565Z,2.67
2018-12-20T12:58:04.682Z,4.10
2018-12-20T13:00:30.535Z,4.47
2018-12-20T13:02:59.318Z,3.27
2018-12-20T13:05:28.821Z,3.60
2018-12-20T13:07:58.237Z,1.92
2018-12-20T13:10:27.872Z,4.42
2018-12-20T13:12:56.496Z,3.70
2018-12-20T13:15:25.605Z,2.92
2018-12-20T13:17:54.390Z,4.95
2018-12-20T13:20:23.788Z,4.30
2018-12-20T13:22:52.664Z,3.42
2018-12-20T13:25:22.117Z,4.35
2018-12-20T13:27:50.757Z,5.78
2018-12-20T13:30:20.277Z,3.00
2018-12-20T13:32:49.839Z,4.75
2018-12-20T13:35:19.270Z,3.52
2018-12-20T13:37:48.805Z,4.40
2018-12-20T13:40:17.385Z,2.55
2018-12-20T13:42:46.053Z,4.95
2018-12-20T13:45:14.748Z,5.12
2018-12-20T13:47:43.510Z,2.27
2018-12-20T13:50:12.573Z,3.33
2018-12-20T13:52:41.610Z,3.60
2018-12-20T13:55:10.355Z,2.42
2018-12-20T13:57:39.116Z,2.50
2018-12-20T14:00:13.143Z,3.40
2018-12-20T14:02:41.733Z,2.65
2018-12-20T14:05:10.645Z,2.95
2018-12-20T14:07:40.016Z,2.30
2018-12-20T14:10:10.038Z,4.28
2018-12-20T14:12:38.793Z,3.42
2018-12-20T14:15:09.297Z,3.50
2018-12-20T14:17:37.924Z,4.53
2018-12-20T14:20:08.065Z,4.35
2018-12-20T14:22:36.802Z,3.47
2018-12-20T14:25:07.290Z,4.33
2018-12-20T14:27:36.843Z,3.60
2018-12-20T14:30:08.672Z,4.10
2018-12-20T14:32:37.320Z,4.15
2018-12-20T14:35:06.126Z,3.60
2018-12-20T14:37:34.996Z,4.37
2018-12-20T14:40:04.043Z,6.12
2018-12-20T14:42:32.788Z,5.33
2018-12-20T14:45:01.657Z,4.10
2018-12-20T14:47:30.318Z,3.83
2018-12-20T14:49:59.594Z,4.47
2018-12-20T14:52:28.581Z,4.15
2018-12-20T14:55:00.513Z,3.52
2018-12-20T14:57:29.328Z,4.72
2018-12-20T14:59:59.059Z,3.02
2018-12-20T15:02:28.787Z,3.62
2018-12-20T15:04:58.151Z,4.75
2018-12-20T15:07:27.077Z,4.15
2018-12-20T15:09:56.515Z,4.55
2018-12-20T15:12:25.104Z,3.95
2018-12-20T15:14:53.773Z,4.12
2018-12-20T15:17:22.592Z,4.55
2018-12-20T15:19:51.640Z,3.95
2018-12-20T15:22:20.784Z,3.60
2018-12-20T15:24:50.348Z,5.22
2018-12-20T15:27:19.725Z,3.62
2018-12-20T15:29:48.413Z,3.12
2018-12-20T15:32:17.511Z,3.92
2018-12-20T15:34:46.717Z,3.75
2018-12-20T15:37:15.474Z,3.67
2018-12-20T15:39:44.367Z,4.37
2018-12-20T15:42:13.426Z,4.00
2018-12-20T15:44:44.427Z,3.85
2018-12-20T15:47:13.086Z,3.37
2018-12-20T15:49:42.913Z,4.47
2018-12-20T15:52:11.459Z,4.80
2018-12-20T15:54:40.057Z,5.28
2018-12-20T15:57:08.883Z,4.83
2018-12-20T15:59:37.545Z,3.87
2018-12-20T16:02:06.520Z,5.58
2018-12-20T16:04:36.095Z,4.25
2018-12-20T16:07:05.600Z,4.78
2018-12-20T16:09:35.097Z,4.30
2018-12-20T16:12:04.534Z,4.12
2018-12-20T16:14:33.179Z,4.08
2018-12-20T16:17:02.082Z,4.45
2018-12-20T16:19:30.909Z,4.78
2018-12-20T16:21:59.713Z,5.67
2018-12-20T16:24:28.408Z,3.62
2018-12-20T16:26:57.606Z,3.65
2018-12-20T16:29:26.556Z,4.42
2018-12-20T16:31:55.163Z,4.55
2018-12-20T16:34:24.887Z,4.75
2018-12-20T16:36:54.363Z,4.53
2018-12-20T16:39:23.243Z,5.22
2018-12-20T16:41:52.247Z,4.42
2018-12-20T16:44:21.157Z,5.58
2018-12-20T16:46:49.764Z,3.20
2018-12-20T16:49:18.788Z,3.75
2018-12-20T16:51:47.511Z,2.92
2018-12-20T16:54:16.981Z,2.77
2018-12-20T16:56:46.481Z,3.12
2018-12-20T16:59:16.871Z,2.72
2018-12-20T17:01:45.697Z,2.72
2018-12-20T17:04:14.793Z,4.35
2018-12-20T17:06:43.599Z,3.65
2018-12-20T17:09:12.372Z,3.40
2018-12-20T17:11:41.803Z,6.08
2018-12-20T17:14:10.639Z,6.33
2018-12-20T17:16:46.107Z,4.45
2018-12-20T17:19:21.882Z,3.20
2018-12-20T17:21:46.074Z,3.15
2018-12-20T17:24:22.146Z,4.17
2018-12-20T17:26:51.473Z,4.22
2018-12-20T17:29:20.046Z,2.70
2018-12-20T17:31:48.792Z,3.83
2018-12-20T17:34:18.335Z,3.47
2018-12-20T17:36:47.576Z,4.83
2018-12-20T17:39:16.511Z,3.37
2018-12-20T17:41:46.067Z,2.72
2018-12-20T17:44:15.350Z,2.22
2018-12-20T17:46:44.024Z,3.65
2018-12-20T17:49:13.482Z,3.33
2018-12-20T17:51:43.066Z,4.28
2018-12-20T17:54:12.080Z,2.77
2018-12-20T17:56:40.879Z,5.05
2018-12-20T17:59:09.743Z,3.45
2018-12-20T18:01:40.282Z,3.45
2018-12-20T18:04:09.888Z,6.53
2018-12-20T18:06:39.381Z,2.02
2018-12-20T18:09:09.611Z,3.12
2018-12-20T18:11:38.348Z,3.45
2018-12-20T18:14:07.412Z,3.15
2018-12-20T18:16:36.538Z,3.42
2018-12-20T18:19:05.265Z,3.83
2018-12-20T18:21:34.627Z,2.85
2018-12-20T18:24:04.349Z,2.72
2018-12-20T18:26:33.705Z,3.00
2018-12-20T18:29:02.467Z,6.20
2018-12-20T18:31:31.125Z,6.58
2018-12-20T18:33:59.950Z,4.90
2018-12-20T18:36:28.602Z,4.40
2018-12-20T18:38:57.589Z,4.92
2018-12-20T18:41:26.979Z,4.22
2018-12-20T18:43:56.512Z,5.62
2018-12-20T18:46:26.235Z,3.12
2018-12-20T18:48:55.821Z,3.60
2018-12-20T18:51:24.630Z,2.70
2018-12-20T18:53:53.478Z,2.47
2018-12-20T18:56:22.444Z,6.87
2018-12-20T18:58:52.139Z,7.65
2018-12-20T19:01:21.373Z,6.60
2018-12-20T19:03:50.248Z,8.73
2018-12-20T19:06:19.429Z,6.22
2018-12-20T19:08:49.361Z,3.90
2018-12-20T19:11:18.624Z,3.10
2018-12-20T19:13:48.209Z,2.95
2018-12-20T19:16:17.675Z,2.50
2018-12-20T19:18:46.435Z,3.67
2018-12-20T19:21:15.592Z,3.20
2018-12-20T19:23:44.337Z,3.10
2018-12-20T19:26:13.356Z,2.87
2018-12-20T19:28:42.161Z,4.08
2018-12-20T19:31:11.578Z,5.15
2018-12-20T19:33:40.472Z,4.58
2018-12-20T19:36:09.724Z,5.60
2018-12-20T19:38:39.261Z,4.55
2018-12-20T19:41:09.174Z,2.85
2018-12-20T19:43:37.919Z,3.25
2018-12-20T19:46:07.130Z,2.92
2018-12-20T19:48:36.039Z,5.20
2018-12-20T19:51:05.221Z,3.22
2018-12-20T19:53:34.640Z,4.75
2018-12-20T19:56:04.687Z,4.67
2018-12-20T19:58:33.857Z,2.85
2018-12-20T20:01:02.808Z,2.92
2018-12-20T20:03:32.543Z,5.33
2018-12-20T20:06:01.133Z,2.92
2018-12-20T20:08:29.879Z,4.30
2018-12-20T20:10:59.376Z,3.00
2018-12-20T20:13:30.933Z,3.35
2018-12-20T20:15:59.251Z,4.47
2018-12-20T20:18:28.222Z,2.98
2018-12-20T20:20:57.692Z,3.27
2018-12-20T20:23:26.861Z,2.98
2018-12-20T20:25:56.666Z,2.45
2018-12-20T20:28:25.859Z,2.60
2018-12-20T20:30:54.740Z,3.45
2018-12-20T20:33:24.302Z,3.80
2018-12-20T20:35:53.019Z,2.65
2018-12-20T20:38:21.644Z,4.40
2018-12-20T20:40:50.530Z,3.30
2018-12-20T20:43:19.170Z,2.95
2018-12-20T20:45:48.324Z,1.65
2018-12-20T20:48:17.187Z,2.35
2018-12-20T20:50:45.992Z,5.45
2018-12-20T20:53:15.020Z,3.45
2018-12-20T20:55:44.252Z,3.55
2018-12-20T20:58:13.010Z,5.37
2018-12-20T21:00:41.855Z,2.20
2018-12-20T21:03:11.186Z,3.75
2018-12-20T21:05:40.181Z,1.90
2018-12-20T21:08:08.966Z,2.45
2018-12-20T21:10:38.465Z,2.50
2018-12-20T21:13:08.362Z,1.62
2018-12-20T21:15:37.404Z,4.25
2018-12-20T21:18:06.303Z,4.50
2018-12-20T21:20:34.973Z,4.70
2018-12-20T21:23:04.083Z,3.60
2018-12-20T21:25:32.989Z,2.05
2018-12-20T21:28:01.701Z,4.20
2018-12-20T21:30:31.218Z,4.85
2018-12-20T21:33:00.741Z,2.98
2018-12-20T21:35:30.102Z,4.17
2018-12-20T21:37:59.815Z,3.67
2018-12-20T21:40:28.444Z,2.67
2018-12-20T21:42:58.730Z,5.50
2018-12-20T21:45:27.516Z,4.55
2018-12-20T21:47:56.446Z,6.62
2018-12-20T21:50:25.538Z,4.67
2018-12-20T21:52:54.257Z,3.90
2018-12-20T21:55:23.107Z,3.22
2018-12-20T21:57:52.268Z,2.67
2018-12-20T22:00:21.172Z,2.37
2018-12-20T22:02:50.154Z,3.80
2018-12-20T22:05:19.211Z,2.87
2018-12-20T22:07:48.189Z,5.42
2018-12-20T22:10:18.339Z,4.50
2018-12-20T22:12:47.721Z,2.92
2018-12-20T22:15:16.821Z,3.45
2018-12-20T22:17:46.393Z,2.47
2018-12-20T22:20:15.161Z,3.58
2018-12-20T22:22:44.344Z,1.92
2018-12-20T22:25:13.075Z,3.45
2018-12-20T22:27:42.284Z,2.08
2018-12-20T22:30:11.695Z,3.60
2018-12-20T22:32:40.512Z,3.17
2018-12-20T22:35:09.695Z,1.65
2018-12-20T22:37:38.269Z,1.47
2018-12-20T22:40:08.158Z,2.83
2018-12-20T22:42:36.807Z,3.15
2018-12-20T22:45:07.390Z,2.05
2018-12-20T22:47:36.305Z,3.85
2018-12-20T22:50:06.423Z,3.05
2018-12-20T22:52:35.586Z,3.35
2018-12-20T22:55:05.470Z,2.67
2018-12-20T22:57:35.079Z,2.25
2018-12-20T23:00:04.572Z,3.05
2018-12-20T23:02:33.539Z,2.90
2018-12-20T23:05:02.832Z,3.02
2018-12-20T23:07:32.240Z,2.65
2018-12-20T23:10:02.776Z,2.50
2018-12-20T23:12:31.423Z,3.83
2018-12-20T23:15:00.928Z,2.42
2018-12-20T23:17:29.944Z,2.62
2018-12-20T23:19:58.929Z,3.02
2018-12-20T23:22:28.474Z,2.67
2018-12-20T23:24:57.200Z,2.72
2018-12-20T23:27:26.133Z,4.10
2018-12-20T23:29:56.311Z,2.20
2018-12-20T23:32:25.387Z,2.80
2018-12-20T23:34:54.022Z,2.00
2018-12-20T23:37:22.738Z,4.45
2018-12-20T23:39:51.456Z,1.98
2018-12-20T23:42:21.027Z,4.72
2018-12-20T23:44:49.685Z,4.22
2018-12-20T23:47:19.358Z,1.67
2018-12-20T23:49:48.312Z,2.40
2018-12-20T23:52:17.291Z,2.55
2018-12-20T23:54:46.057Z,4.80
2018-12-20T23:57:14.711Z,3.58
2018-12-20T23:59:43.502Z,2.35
